createdAt,value
2022-12-19T00:01:16.122Z,2.00
2022-12-19T00:03:45.633Z,1.50
2022-12-19T00:06:14.431Z,1.40
2022-12-19T00:08:43.248Z,1.60
2022-12-19T00:11:14.086Z,2.00
2022-12-19T00:13:43.066Z,1.77
2022-12-19T00:16:13.292Z,1.50
2022-12-19T00:18:42.440Z,1.88
2022-12-19T00:21:12.345Z,1.40
2022-12-19T00:23:40.980Z,1.48
2022-12-19T00:26:17.563Z,1.70
2022-12-19T00:28:49.657Z,1.67
2022-12-19T00:31:19.253Z,1.55
2022-12-19T00:33:48.339Z,1.58
2022-12-19T00:36:22.660Z,1.63
2022-12-19T00:38:52.235Z,1.65
2022-12-19T00:41:24.408Z,1.48
2022-12-19T00:43:55.019Z,1.40
2022-12-19T00:46:23.696Z,1.60
2022-12-19T00:48:52.348Z,1.40
2022-12-19T00:51:21.973Z,1.67
2022-12-19T00:53:51.077Z,1.70
2022-12-19T00:56:20.798Z,1.30
2022-12-19T00:58:50.762Z,1.40
2022-12-19T01:01:20.228Z,1.30
2022-12-19T01:04:25.969Z,1.60
2022-12-19T01:06:38.454Z,1.30
2022-12-19T01:09:07.752Z,1.50
2022-12-19T01:11:53.800Z,1.45
2022-12-19T01:14:23.904Z,1.30
2022-12-19T01:16:52.755Z,1.15
2022-12-19T01:19:21.398Z,1.80
2022-12-19T01:21:50.239Z,1.25
2022-12-19T01:24:19.212Z,1.20
2022-12-19T01:26:51.510Z,1.42
2022-12-19T01:29:20.164Z,1.40
2022-12-19T01:31:51.298Z,1.33
2022-12-19T01:34:19.985Z,1.50
2022-12-19T01:36:49.507Z,1.77
2022-12-19T01:39:18.237Z,1.60
2022-12-19T01:41:46.836Z,1.58
2022-12-19T01:44:15.439Z,2.08
2022-12-19T01:46:47.329Z,1.60
2022-12-19T01:49:22.075Z,1.60
2022-12-19T01:51:54.556Z,1.50
2022-12-19T01:54:24.519Z,1.33
2022-12-19T01:56:55.190Z,1.50
2022-12-19T01:59:26.865Z,1.77
2022-12-19T02:01:58.636Z,1.75
2022-12-19T02:04:32.235Z,1.60
2022-12-19T02:07:08.678Z,1.67
2022-12-19T02:09:46.870Z,1.58
2022-12-19T02:12:16.333Z,1.85
2022-12-19T02:14:45.236Z,1.50
2022-12-19T02:17:16.552Z,1.63
2022-12-19T02:20:10.471Z,1.80
2022-12-19T02:22:46.930Z,1.30
2022-12-19T02:25:27.826Z,1.80
2022-12-19T02:28:22.582Z,1.73
2022-12-19T02:30:56.932Z,1.88
2022-12-19T02:33:33.718Z,1.30
2022-12-19T02:36:05.832Z,1.80
2022-12-19T02:38:38.499Z,1.42
2022-12-19T02:41:09.923Z,1.70
2022-12-19T02:43:41.885Z,1.48
2022-12-19T02:46:13.563Z,2.22
2022-12-19T02:48:43.321Z,2.22
2022-12-19T02:51:12.101Z,1.60
2022-12-19T02:53:41.136Z,1.33
2022-12-19T02:56:17.571Z,1.50
2022-12-19T02:58:54.621Z,1.80
2022-12-19T03:01:33.488Z,1.90
2022-12-19T03:04:08.224Z,2.25
2022-12-19T03:06:42.773Z,1.92
2022-12-19T03:09:17.288Z,2.13
2022-12-19T03:11:48.461Z,1.90
2022-12-19T03:14:19.474Z,1.80
2022-12-19T03:16:50.076Z,1.88
2022-12-19T03:19:18.904Z,2.03
2022-12-19T03:21:48.388Z,2.10
2022-12-19T03:24:18.177Z,2.20
2022-12-19T03:26:48.852Z,1.80
2022-12-19T03:29:19.182Z,2.15
2022-12-19T03:31:48.519Z,1.98
2022-12-19T03:34:20.300Z,2.00
2022-12-19T03:36:50.042Z,2.15
2022-12-19T03:39:19.732Z,1.70
2022-12-19T03:42:06.985Z,1.58
2022-12-19T03:44:37.390Z,1.70
2022-12-19T03:47:08.929Z,1.58
2022-12-19T03:49:39.688Z,1.85
2022-12-19T03:52:18.818Z,1.88
2022-12-19T03:54:51.674Z,1.80
2022-12-19T03:57:22.993Z,1.60
2022-12-19T03:59:57.277Z,1.77
2022-12-19T04:02:26.457Z,1.80
2022-12-19T04:04:58.333Z,2.15
2022-12-19T04:07:27.158Z,1.48
2022-12-19T04:09:57.801Z,1.50
2022-12-19T04:12:28.270Z,1.35
2022-12-19T04:14:57.013Z,1.77
2022-12-19T04:17:29.093Z,1.55
2022-12-19T04:20:02.138Z,1.48
2022-12-19T04:22:33.841Z,1.58
2022-12-19T04:25:09.096Z,1.92
2022-12-19T04:27:39.017Z,1.65
2022-12-19T04:30:11.857Z,1.60
2022-12-19T04:32:41.448Z,1.88
2022-12-19T04:35:12.194Z,1.50
2022-12-19T04:37:41.225Z,1.70
2022-12-19T04:40:10.475Z,2.13
2022-12-19T04:42:39.129Z,2.05
2022-12-19T04:45:08.446Z,2.03
2022-12-19T04:47:37.247Z,2.22
2022-12-19T04:50:06.157Z,2.65
2022-12-19T04:52:36.329Z,2.80
2022-12-19T04:55:05.033Z,3.10
2022-12-19T04:57:33.969Z,3.50
2022-12-19T05:00:03.981Z,3.22
2022-12-19T05:02:33.121Z,3.95
2022-12-19T05:05:01.956Z,3.90
2022-12-19T05:07:30.649Z,4.85
2022-12-19T05:10:04.064Z,3.83
2022-12-19T05:12:32.621Z,4.18
2022-12-19T05:15:01.243Z,4.57
2022-12-19T05:17:29.925Z,5.45
2022-12-19T05:19:58.575Z,5.07
2022-12-19T05:22:27.275Z,4.70
2022-12-19T05:24:55.958Z,5.85
2022-12-19T05:27:26.501Z,5.45
2022-12-19T05:29:55.104Z,5.65
2022-12-19T05:32:23.932Z,6.60
2022-12-19T05:34:52.840Z,6.57
2022-12-19T05:37:21.461Z,6.63
2022-12-19T05:39:50.119Z,7.00
2022-12-19T05:42:18.809Z,6.93
2022-12-19T05:44:49.489Z,6.90
2022-12-19T05:47:18.184Z,7.40
2022-12-19T05:49:46.904Z,7.88
2022-12-19T05:52:15.709Z,7.63
2022-12-19T05:54:44.365Z,7.63
2022-12-19T05:57:13.172Z,7.85
2022-12-19T05:59:42.312Z,8.35
2022-12-19T06:02:12.510Z,8.13
2022-12-19T06:04:41.241Z,7.88
2022-12-19T06:07:09.960Z,7.72
2022-12-19T06:09:38.543Z,8.48
2022-12-19T06:12:07.387Z,7.93
2022-12-19T06:14:36.244Z,7.80
2022-12-19T06:17:05.240Z,7.93
2022-12-19T06:19:35.699Z,7.78
2022-12-19T06:22:05.245Z,8.38
2022-12-19T06:24:34.009Z,8.95
2022-12-19T06:27:05.492Z,9.32
2022-12-19T06:29:34.912Z,8.30
2022-12-19T06:32:03.707Z,8.00
2022-12-19T06:35:02.734Z,8.80
2022-12-19T06:37:22.349Z,8.13
2022-12-19T06:39:52.483Z,9.57
2022-12-19T06:42:23.349Z,9.35
2022-12-19T06:44:52.515Z,8.50
2022-12-19T06:47:21.547Z,8.95
2022-12-19T06:49:50.493Z,9.13
2022-12-19T06:52:19.593Z,9.20
2022-12-19T06:54:50.118Z,8.10
2022-12-19T06:57:18.756Z,8.50
2022-12-19T06:59:47.431Z,8.57
2022-12-19T07:02:20.903Z,8.55
2022-12-19T07:04:52.451Z,8.05
2022-12-19T07:07:21.458Z,8.20
2022-12-19T07:09:51.801Z,7.63
2022-12-19T07:12:20.559Z,7.88
2022-12-19T07:14:53.301Z,7.60
2022-12-19T07:17:23.012Z,7.32
2022-12-19T07:19:51.788Z,7.82
2022-12-19T07:22:20.731Z,8.05
2022-12-19T07:24:49.610Z,8.13
2022-12-19T07:27:19.636Z,7.88
2022-12-19T07:29:48.343Z,8.35
2022-12-19T07:32:16.976Z,8.20
2022-12-19T07:34:45.703Z,7.82
2022-12-19T07:37:14.432Z,9.02
2022-12-19T07:39:43.223Z,7.80
2022-12-19T07:42:11.932Z,7.90
2022-12-19T07:44:42.221Z,6.97
2022-12-19T07:47:11.115Z,7.78
2022-12-19T07:49:39.882Z,7.57
2022-12-19T07:52:09.681Z,7.80
2022-12-19T07:54:38.452Z,7.10
2022-12-19T07:57:07.133Z,6.45
2022-12-19T07:59:39.335Z,6.82
2022-12-19T08:02:10.165Z,6.55
2022-12-19T08:04:38.959Z,6.53
2022-12-19T08:07:07.647Z,5.63
2022-12-19T08:09:36.426Z,5.35
2022-12-19T08:12:05.556Z,5.28
2022-12-19T08:14:34.218Z,5.32
2022-12-19T08:19:53.211Z,4.55
2022-12-19T08:22:22.919Z,4.10
2022-12-19T08:24:51.964Z,4.55
2022-12-19T08:27:20.569Z,5.07
2022-12-19T08:29:49.277Z,4.20
2022-12-19T08:32:21.111Z,3.90
2022-12-19T08:34:50.070Z,3.85
2022-12-19T08:37:20.222Z,4.22
2022-12-19T08:39:48.920Z,3.50
2022-12-19T08:42:17.558Z,3.75
2022-12-19T08:44:46.253Z,3.28
2022-12-19T08:47:15.011Z,3.10
2022-12-19T08:49:43.795Z,3.60
2022-12-19T08:52:12.511Z,2.70
2022-12-19T08:54:42.566Z,3.33
2022-12-19T08:57:11.380Z,3.63
2022-12-19T08:59:40.071Z,3.00
2022-12-19T09:02:09.698Z,3.83
2022-12-19T09:06:02.511Z,3.17
2022-12-19T09:07:27.469Z,3.05
2022-12-19T09:09:57.463Z,3.10
2022-12-19T09:12:26.243Z,3.60
2022-12-19T09:14:55.103Z,3.20
2022-12-19T09:17:23.773Z,3.63
2022-12-19T09:19:52.495Z,3.15
2022-12-19T09:22:21.137Z,3.20
2022-12-19T09:24:57.792Z,3.40
2022-12-19T09:27:27.123Z,4.00
2022-12-19T09:29:55.817Z,4.53
2022-12-19T09:32:24.559Z,4.72
2022-12-19T09:34:53.205Z,4.18
2022-12-19T09:37:22.158Z,4.68
2022-12-19T09:39:51.051Z,4.57
2022-12-19T09:42:40.710Z,5.45
2022-12-19T09:45:37.394Z,4.38
2022-12-19T09:48:06.143Z,5.00
2022-12-19T09:50:44.444Z,5.32
2022-12-19T09:53:16.824Z,5.43
2022-12-19T09:55:46.322Z,5.47
2022-12-19T09:58:22.046Z,5.22
2022-12-19T10:00:56.795Z,5.47
2022-12-19T10:03:32.254Z,5.18
2022-12-19T10:07:16.302Z,5.53
2022-12-19T10:10:14.595Z,5.60
2022-12-19T10:12:38.175Z,6.20
2022-12-19T10:14:53.825Z,5.90
2022-12-19T10:17:28.047Z,6.55
2022-12-19T10:20:05.473Z,6.60
2022-12-19T10:22:39.321Z,6.72
2022-12-19T10:25:20.424Z,6.57
2022-12-19T10:27:58.455Z,7.10
2022-12-19T10:30:31.742Z,7.00
2022-12-19T10:33:04.826Z,7.03
2022-12-19T10:35:37.492Z,7.45
2022-12-19T10:38:11.811Z,7.50
2022-12-19T10:40:44.339Z,7.03
2022-12-19T10:43:22.856Z,6.90
2022-12-19T10:46:03.457Z,6.55
2022-12-19T10:48:32.294Z,7.53
2022-12-19T10:51:06.708Z,7.00
2022-12-19T10:53:36.032Z,7.32
2022-12-19T10:56:13.410Z,6.95
2022-12-19T10:58:45.643Z,7.43
2022-12-19T11:01:17.193Z,7.35
2022-12-19T11:03:47.550Z,7.60
2022-12-19T11:06:34.916Z,7.57
2022-12-19T11:09:19.099Z,7.30
2022-12-19T11:15:44.747Z,7.20
2022-12-19T11:19:50.052Z,7.38
2022-12-19T11:24:04.554Z,8.23
2022-12-19T11:29:32.624Z,7.60
2022-12-19T11:30:09.084Z,8.00
2022-12-19T11:30:38.644Z,7.10
2022-12-19T11:30:39.549Z,7.53
2022-12-19T11:34:35.679Z,7.38
2022-12-19T11:37:10.785Z,7.70
2022-12-19T11:39:50.203Z,7.35
2022-12-19T11:42:24.636Z,7.50
2022-12-19T11:44:57.280Z,7.13
2022-12-19T11:47:32.564Z,6.88
2022-12-19T11:50:04.935Z,7.47
2022-12-19T11:53:03.909Z,7.68
2022-12-19T11:55:29.551Z,6.85
2022-12-19T11:57:59.333Z,7.25
2022-12-19T12:00:28.066Z,7.07
2022-12-19T12:03:09.923Z,6.85
2022-12-19T12:05:47.239Z,7.00
2022-12-19T12:09:32.900Z,7.43
2022-12-19T12:16:15.942Z,7.32
2022-12-19T12:24:58.850Z,7.00
2022-12-19T12:31:05.471Z,7.30
2022-12-19T12:31:11.208Z,6.80
2022-12-19T12:31:11.744Z,6.70
2022-12-19T12:31:50.066Z,7.13
2022-12-19T12:32:02.524Z,7.28
2022-12-19T12:35:31.527Z,7.70
2022-12-19T12:35:52.286Z,7.00
2022-12-19T12:40:51.152Z,8.05
2022-12-19T12:43:26.529Z,7.80
2022-12-19T12:45:55.219Z,8.00
2022-12-19T12:48:26.705Z,7.90
2022-12-19T12:50:57.853Z,7.70
2022-12-19T12:53:29.825Z,7.80
2022-12-19T12:56:01.111Z,8.70
2022-12-19T12:58:46.386Z,7.85
2022-12-19T13:01:18.827Z,8.50
2022-12-19T13:03:54.762Z,8.80
2022-12-19T13:06:27.261Z,8.68
2022-12-19T13:08:58.435Z,8.68
2022-12-19T13:11:56.975Z,8.05
2022-12-19T13:14:46.036Z,8.20
2022-12-19T13:17:15.349Z,8.48
2022-12-19T13:19:54.786Z,8.55
2022-12-19T13:22:38.801Z,8.77
2022-12-19T13:25:22.299Z,8.15
2022-12-19T13:27:57.645Z,9.57
2022-12-19T13:30:27.446Z,8.25
2022-12-19T13:33:10.162Z,8.32
2022-12-19T13:36:49.304Z,8.50
2022-12-19T13:39:56.170Z,8.65
2022-12-19T13:41:48.508Z,8.88
2022-12-19T13:44:22.578Z,8.57
2022-12-19T13:46:51.750Z,8.60
2022-12-19T13:49:21.815Z,8.73
2022-12-19T13:51:51.614Z,8.00
2022-12-19T13:54:22.870Z,8.52
2022-12-19T13:56:52.364Z,8.95
2022-12-19T13:59:23.270Z,8.45
2022-12-19T14:01:52.798Z,8.50
2022-12-19T14:04:28.268Z,9.07
2022-12-19T14:06:59.190Z,8.75
2022-12-19T14:11:29.852Z,7.68
2022-12-19T14:13:58.196Z,8.57
2022-12-19T14:15:29.513Z,7.55
2022-12-19T14:17:58.318Z,8.98
2022-12-19T14:22:01.820Z,8.10
2022-12-19T14:23:43.067Z,7.75
2022-12-19T14:28:24.936Z,8.05
2022-12-19T14:29:05.296Z,8.13
2022-12-19T14:31:36.238Z,7.70
2022-12-19T14:34:35.562Z,8.38
2022-12-19T14:36:54.323Z,7.70
2022-12-19T14:39:29.203Z,7.40
2022-12-19T14:42:31.610Z,7.70
2022-12-19T14:54:03.000Z,7.97
2022-12-19T14:54:07.519Z,7.65
2022-12-19T14:54:32.368Z,6.95
2022-12-19T14:57:07.428Z,8.80
2022-12-19T14:59:37.761Z,7.32
2022-12-19T15:02:16.527Z,8.38
2022-12-19T15:05:04.757Z,7.32
2022-12-19T15:07:34.568Z,7.88
2022-12-19T15:11:08.832Z,7.72
2022-12-19T15:14:54.258Z,7.80
2022-12-19T15:16:05.235Z,7.57
2022-12-19T15:18:41.090Z,7.43
2022-12-19T15:21:13.503Z,7.97
2022-12-19T15:23:42.303Z,8.65
2022-12-19T15:26:14.166Z,8.07
2022-12-19T15:28:44.651Z,8.85
2022-12-19T15:31:19.730Z,8.60
2022-12-19T15:34:14.894Z,7.38
2022-12-19T15:36:38.829Z,8.75
2022-12-19T15:39:07.480Z,9.75
2022-12-19T15:41:36.443Z,8.80
2022-12-19T15:44:09.151Z,8.75
2022-12-19T15:46:41.407Z,8.45
2022-12-19T15:49:16.511Z,9.13
2022-12-19T15:51:46.668Z,8.38
2022-12-19T15:57:06.472Z,8.48
2022-12-19T15:59:38.265Z,7.93
2022-12-19T16:02:16.934Z,8.43
2022-12-19T16:04:46.391Z,8.32
2022-12-19T16:07:18.264Z,8.38
2022-12-19T16:09:47.024Z,8.90
2022-12-19T16:12:16.998Z,8.98
2022-12-19T16:14:45.900Z,8.85
2022-12-19T16:17:16.682Z,8.98
2022-12-19T16:19:45.725Z,8.48
2022-12-19T16:22:19.234Z,9.23
2022-12-19T16:24:47.941Z,8.90
2022-12-19T16:27:20.513Z,9.40
2022-12-19T16:29:49.246Z,8.90
2022-12-19T16:32:18.081Z,8.77
2022-12-19T16:34:46.844Z,9.75
2022-12-19T16:37:15.579Z,9.90
2022-12-19T16:39:45.587Z,9.02
2022-12-19T16:42:17.048Z,9.18
2022-12-19T16:44:46.725Z,11.13
2022-12-19T16:47:16.234Z,16.27
2022-12-19T16:49:45.197Z,10.52
2022-12-19T16:52:14.079Z,11.13
2022-12-19T16:54:42.763Z,9.80
2022-12-19T16:57:19.723Z,9.25
2022-12-19T16:59:48.496Z,9.25
2022-12-19T17:02:27.283Z,9.32
2022-12-19T17:04:56.668Z,10.00
2022-12-19T17:07:25.450Z,9.38
2022-12-19T17:09:54.230Z,9.48
2022-12-19T17:12:25.041Z,9.70
2022-12-19T17:14:53.784Z,10.18
2022-12-19T17:17:22.609Z,10.10
2022-12-19T17:19:51.488Z,9.18
2022-12-19T17:22:21.481Z,10.38
2022-12-19T17:24:51.065Z,10.15
2022-12-19T17:27:21.057Z,9.43
2022-12-19T17:29:51.156Z,10.15
2022-12-19T17:32:24.044Z,9.85
2022-12-19T17:34:53.841Z,10.88
2022-12-19T17:37:23.035Z,12.20
2022-12-19T17:39:51.957Z,11.43
2022-12-19T17:42:23.088Z,12.30
2022-12-19T17:44:53.341Z,12.52
2022-12-19T17:47:22.337Z,12.73
2022-12-19T17:49:51.930Z,11.00
2022-12-19T17:52:21.933Z,10.38
2022-12-19T17:54:50.564Z,11.85
2022-12-19T17:57:19.565Z,11.27
2022-12-19T17:59:48.276Z,11.10
2022-12-19T18:02:22.245Z,10.75
2022-12-19T18:04:51.805Z,11.20
2022-12-19T18:07:20.435Z,10.98
2022-12-19T18:09:50.511Z,11.40
2022-12-19T18:12:19.499Z,11.02
2022-12-19T18:14:48.343Z,10.90
2022-12-19T18:17:21.956Z,10.65
2022-12-19T18:19:51.991Z,9.98
2022-12-19T18:22:20.716Z,10.43
2022-12-19T18:24:49.639Z,10.40
2022-12-19T18:27:18.395Z,11.13
2022-12-19T18:29:47.022Z,11.23
2022-12-19T18:32:18.887Z,10.95
2022-12-19T18:34:47.625Z,11.13
2022-12-19T18:37:17.885Z,10.68
2022-12-19T18:39:46.565Z,10.52
2022-12-19T18:42:20.576Z,10.82
2022-12-19T18:44:49.364Z,10.18
2022-12-19T18:47:21.404Z,10.52
2022-12-19T18:49:51.084Z,10.32
2022-12-19T18:52:21.252Z,10.00
2022-12-19T18:54:49.984Z,11.98
2022-12-19T18:57:18.658Z,10.85
2022-12-19T18:59:48.699Z,11.60
2022-12-19T19:02:26.207Z,10.98
2022-12-19T19:04:55.932Z,11.48
2022-12-19T19:07:26.035Z,11.82
2022-12-19T19:09:54.713Z,10.00
2022-12-19T19:12:37.754Z,11.38
2022-12-19T19:15:07.386Z,11.57
2022-12-19T19:17:36.096Z,10.43
2022-12-19T19:20:05.121Z,10.98
2022-12-19T19:22:35.178Z,11.57
2022-12-19T19:25:03.847Z,11.75
2022-12-19T19:27:32.424Z,11.57
2022-12-19T19:30:01.043Z,11.50
2022-12-19T19:32:29.781Z,11.57
2022-12-19T19:34:58.462Z,11.20
2022-12-19T19:37:27.242Z,12.40
2022-12-19T19:39:57.253Z,11.48
2022-12-19T19:42:25.952Z,12.27
2022-12-19T19:44:54.568Z,11.43
2022-12-19T19:47:26.644Z,12.27
2022-12-19T19:49:56.721Z,12.45
2022-12-19T19:52:25.354Z,11.07
2022-12-19T19:54:53.994Z,11.90
2022-12-19T19:57:23.999Z,10.70
2022-12-19T19:59:52.878Z,12.07
2022-12-19T20:02:21.670Z,10.68
2022-12-19T20:04:50.491Z,11.15
2022-12-19T20:07:19.578Z,10.15
2022-12-19T20:09:48.223Z,11.38
2022-12-19T20:12:16.839Z,11.18
2022-12-19T20:14:46.923Z,12.38
2022-12-19T20:17:15.537Z,11.13
2022-12-19T20:19:44.261Z,10.85
2022-12-19T20:22:12.927Z,10.32
2022-12-19T20:24:41.641Z,10.52
2022-12-19T20:27:10.372Z,10.70
2022-12-19T20:29:39.478Z,10.50
2022-12-19T20:32:10.167Z,10.77
2022-12-19T20:34:38.772Z,10.32
2022-12-19T20:37:07.454Z,9.55
2022-12-19T20:39:36.544Z,10.40
2022-12-19T20:42:06.563Z,10.63
2022-12-19T20:44:35.543Z,9.73
2022-12-19T20:47:04.287Z,11.48
2022-12-19T20:49:34.442Z,10.25
2022-12-19T20:52:03.586Z,8.50
2022-12-19T20:54:32.234Z,9.75
2022-12-19T20:57:00.897Z,8.68
2022-12-19T20:59:29.505Z,9.43
2022-12-19T21:02:00.525Z,9.50
2022-12-19T21:04:30.862Z,8.73
2022-12-19T21:07:01.030Z,9.02
2022-12-19T21:09:29.746Z,8.98
2022-12-19T21:11:58.409Z,9.25
2022-12-19T21:14:27.068Z,8.77
2022-12-19T21:16:56.013Z,9.70
2022-12-19T21:19:24.711Z,9.30
2022-12-19T21:21:53.527Z,8.95
2022-12-19T21:24:23.645Z,9.40
2022-12-19T21:26:57.747Z,9.48
2022-12-19T21:29:26.901Z,9.27
2022-12-19T21:31:55.569Z,9.32
2022-12-19T21:34:24.402Z,10.75
2022-12-19T21:36:53.022Z,10.20
2022-12-19T21:39:25.540Z,10.48
2022-12-19T21:41:54.361Z,10.40
2022-12-19T21:44:23.026Z,10.10
2022-12-19T21:46:51.823Z,10.80
2022-12-19T21:49:21.079Z,9.48
2022-12-19T21:51:49.677Z,10.60
2022-12-19T21:54:18.380Z,9.88
2022-12-19T21:56:48.428Z,10.88
2022-12-19T21:59:17.840Z,10.63
2022-12-19T22:01:47.167Z,10.75
2022-12-19T22:04:17.739Z,10.70
2022-12-19T22:06:46.659Z,9.18
2022-12-19T22:09:16.491Z,10.13
2022-12-19T22:11:45.459Z,9.02
2022-12-19T22:14:16.386Z,9.52
2022-12-19T22:16:45.267Z,9.80
2022-12-19T22:19:15.581Z,8.80
2022-12-19T22:21:44.301Z,8.75
2022-12-19T22:24:13.895Z,8.77
2022-12-19T22:26:43.101Z,8.80
2022-12-19T22:29:12.263Z,9.15
2022-12-19T22:31:42.412Z,8.32
2022-12-19T22:34:12.745Z,8.77
2022-12-19T22:36:42.410Z,7.78
2022-12-19T22:39:12.560Z,8.18
2022-12-19T22:41:41.810Z,8.00
2022-12-19T22:44:10.841Z,8.10
2022-12-19T22:46:40.820Z,7.68
2022-12-19T22:49:11.058Z,7.50
2022-12-19T22:51:39.875Z,6.90
2022-12-19T22:54:09.123Z,7.22
2022-12-19T22:56:37.866Z,7.35
2022-12-19T22:59:07.721Z,6.88
2022-12-19T23:01:38.060Z,7.70
2022-12-19T23:04:08.268Z,7.60
2022-12-19T23:06:38.723Z,7.75
2022-12-19T23:09:07.630Z,7.38
2022-12-19T23:11:38.340Z,6.95
2022-12-19T23:14:08.149Z,7.22
2022-12-19T23:16:36.951Z,7.22
2022-12-19T23:19:06.392Z,6.68
2022-12-19T23:21:35.038Z,7.13
2022-12-19T23:24:05.196Z,7.28
2022-12-19T23:26:34.879Z,7.03
2022-12-19T23:29:04.266Z,7.45
2022-12-19T23:31:33.055Z,7.00
2022-12-19T23:34:02.209Z,6.70
2022-12-19T23:39:21.293Z,6.53
2022-12-19T23:41:49.850Z,6.90
2022-12-19T23:44:18.941Z,7.55
2022-12-19T23:46:47.690Z,7.90
2022-12-19T23:49:16.744Z,7.65
2022-12-19T23:51:45.372Z,7.05
2022-12-19T23:54:13.917Z,7.10
2022-12-19T23:56:44.141Z,7.57
2022-12-19T23:59:13.076Z,7.45
